首页
METAR-TAF:

METAR-TAF

机场 :

Bückeburg, 德国

纬度: 52-17N, 经度: 009-05E, 海拔: 70米

当前天气观测

该预报发布于15分钟前的10:20 UTC
风速8节,风向南转南东
温度 7°C
湿度 81%
气压 1008 hPa
能见度10公里或以上
少量云层高于4500英尺
多云层高于7000英尺
多云层高于12000英尺
附近有阵雨

METAR: ETHB 221020Z 16008KT 9999 VCSH FEW045 BKN070 BKN120 07/04 Q1008 BLU BLU

时间: 11:35 (10:35 UTC)

预报

该预报发布于20分钟前的10:15 UTC
预报有效从22日的 09点(UTC)到 22日的 18点(UTC)
风速10节,风向
能见度10公里或以上
少量云层高于4000英尺
多云层高于8000英尺
几率 30%
从 22日的 09点(UTC)到 22日的 12点(UTC)
风速12节,风向
能見度: 1100
多云层高于2000英尺
多云层高于4000英尺
小雨

TAF: ETHB 221015Z 2209/2218 17010KT 9999 NSW FEW040 BKN080 PROB30 2209/2212 18012KT 6000 -RA BKN020 BKN040 CANCEL 1100

超过4000个机场的气象观测和天气预报(METAR&TAF报告)。

可查询的气象台以黄色和红色小点在地图上表示。

将鼠标移到小点上方,可查看气象台名称。

然后点击查看天气观测和预报。

如需切换地图:点击带黑十字的绿色按钮放大地图;点击带横线的绿色按钮缩小地图;或者点击绿色箭头查看邻近地区的地图。


METAR-TAF: